Terminal Aerodrome Forecast
Issued by NWS

Home | Current Version | Previous Version | Text Only | Print | Product List | Glossary On
Versions: 1 2 3 4 5 6 7 8 9 10 11 12
836
FTUS46 KSEW 162320
TAFCLM
TAF
KCLM 162320Z 1700/1724 25005KT P6SM BKN060 OVC120
     FM170800 09006KT P6SM -RA OVC040
     FM172100 09006KT P6SM -RA OVC025=

USA.gov is the U.S. government's official web portal to all federal, state and local government web resources and services.